Terminal Aerodrome Forecast
Issued by NWS Oklahoma City, OK

Home | Current Version | Previous Version | Text Only | Print | Product List | Glossary On
Versions: 1 2 3 4 5 6 7 8 9 10 11 12 13 14 15 16
000
FTUS44 KOUN 181132
TAFOUN
TAF
KOUN 181132Z 1812/1912 17007KT P6SM BKN050
     FM190100 17007KT P6SM OVC025
     FM190600 16006KT 5SM BR OVC008
     FM190900 16006KT 2SM -DZ BR OVC008
      TEMPO 1909/1912 1/2SM FG VV003=

USA.gov is the U.S. government's official web portal to all federal, state and local government web resources and services.